createdAt,value
2022-12-22T00:01:49.957Z,100383.91
2022-12-22T00:04:35.919Z,100383.19
2022-12-22T00:07:21.480Z,100382.59
2022-12-22T00:10:08.260Z,100387.41
2022-12-22T00:12:53.479Z,100381.50
2022-12-22T00:15:38.530Z,100380.91
2022-12-22T00:18:24.113Z,100388.34
2022-12-22T00:21:09.419Z,100378.91
2022-12-22T00:23:54.538Z,100383.31
2022-12-22T00:26:41.394Z,100374.56
2022-12-22T00:29:27.775Z,100376.44
2022-12-22T00:32:13.210Z,100374.66
2022-12-22T00:34:59.710Z,100367.53
2022-12-22T00:37:47.564Z,100353.66
2022-12-22T00:40:35.424Z,100358.94
2022-12-22T00:43:22.313Z,100362.50
2022-12-22T00:46:07.644Z,100365.16
2022-12-22T00:48:52.955Z,100358.00
2022-12-22T00:51:38.441Z,100343.94
2022-12-22T00:54:26.831Z,100343.28
2022-12-22T00:57:12.247Z,100331.50
2022-12-22T00:59:59.118Z,100329.25
2022-12-22T01:02:44.684Z,100336.22
2022-12-22T01:05:30.277Z,100343.38
2022-12-22T01:08:15.372Z,100339.06
2022-12-22T01:11:01.011Z,100339.28
2022-12-22T01:13:46.465Z,100339.69
2022-12-22T01:16:33.336Z,100354.16
2022-12-22T01:19:18.609Z,100356.13
2022-12-22T01:22:03.944Z,100352.34
2022-12-22T01:24:49.441Z,100355.75
2022-12-22T01:27:34.872Z,100354.41
2022-12-22T01:30:20.125Z,100352.13
2022-12-22T01:33:06.866Z,100356.97
2022-12-22T01:35:52.654Z,100374.06
2022-12-22T01:38:37.982Z,100364.69
2022-12-22T01:41:23.897Z,100369.66
2022-12-22T01:44:09.248Z,100385.06
2022-12-22T01:46:58.189Z,100372.41
2022-12-22T01:49:46.840Z,100373.28
2022-12-22T01:52:32.775Z,100361.09
2022-12-22T01:55:20.277Z,100348.88
2022-12-22T01:58:05.772Z,100349.94
2022-12-22T02:00:51.132Z,100344.69
2022-12-22T02:03:36.587Z,100351.78
2022-12-22T02:06:32.708Z,100357.66
2022-12-22T02:09:27.284Z,100366.88
2022-12-22T02:12:16.673Z,100369.13
2022-12-22T02:15:04.690Z,100368.69
2022-12-22T02:17:52.634Z,100344.94
2022-12-22T02:20:55.352Z,100353.31
2022-12-22T02:23:51.400Z,100354.28
2022-12-22T02:26:48.837Z,100349.00
2022-12-22T02:29:35.295Z,100346.22
2022-12-22T02:32:20.685Z,100343.66
2022-12-22T02:35:06.195Z,100348.88
2022-12-22T02:37:57.651Z,100361.16
2022-12-22T02:40:47.131Z,100368.94
2022-12-22T02:43:39.947Z,100367.59
2022-12-22T02:46:29.000Z,100358.44
2022-12-22T02:49:15.673Z,100366.28
2022-12-22T02:52:02.981Z,100367.63
2022-12-22T02:54:48.209Z,100361.09
2022-12-22T02:57:34.188Z,100358.06
2022-12-22T03:00:21.303Z,100356.66
2022-12-22T03:03:06.773Z,100361.72
2022-12-22T03:05:52.463Z,100354.41
2022-12-22T03:08:37.739Z,100347.19
2022-12-22T03:11:23.148Z,100326.63
2022-12-22T03:14:08.509Z,100323.97
2022-12-22T03:16:55.478Z,100325.84
2022-12-22T03:19:40.895Z,100325.78
2022-12-22T03:22:26.360Z,100325.50
2022-12-22T03:25:11.462Z,100314.97
2022-12-22T03:27:39.410Z,100287.16
2022-12-22T03:30:08.431Z,100304.09
2022-12-22T03:32:37.798Z,100296.03
2022-12-22T03:35:06.189Z,100303.19
2022-12-22T03:37:34.111Z,100308.50
2022-12-22T03:40:02.071Z,100306.63
2022-12-22T03:42:47.461Z,100305.41
2022-12-22T03:45:33.024Z,100308.00
2022-12-22T03:48:02.321Z,100305.19
2022-12-22T03:50:30.217Z,100295.41
2022-12-22T03:52:58.114Z,100298.75
2022-12-22T03:55:26.016Z,100297.81
2022-12-22T03:57:53.945Z,100299.28
2022-12-22T04:00:21.979Z,100298.25
2022-12-22T04:02:49.998Z,100286.50
2022-12-22T04:05:19.372Z,100290.53
2022-12-22T04:07:47.276Z,100279.81
2022-12-22T04:10:32.313Z,100283.78
2022-12-22T04:13:00.223Z,100280.97
2022-12-22T04:15:29.399Z,100281.72
2022-12-22T04:17:57.281Z,100263.25
2022-12-22T04:20:27.851Z,100274.53
2022-12-22T04:22:55.766Z,100273.41
2022-12-22T04:25:23.875Z,100273.31
2022-12-22T04:27:51.759Z,100276.69
2022-12-22T04:30:19.786Z,100273.16
2022-12-22T04:32:47.675Z,100269.22
2022-12-22T04:35:15.596Z,100257.63
2022-12-22T04:37:44.897Z,100252.13
2022-12-22T04:40:12.995Z,100259.84
2022-12-22T04:42:40.885Z,100264.91
2022-12-22T04:45:09.753Z,100266.41
2022-12-22T04:47:37.654Z,100259.06
2022-12-22T04:50:06.142Z,100264.25
2022-12-22T04:52:34.185Z,100258.72
2022-12-22T04:55:03.443Z,100266.56
2022-12-22T04:57:34.318Z,100264.66
2022-12-22T05:00:07.594Z,100261.91
2022-12-22T05:02:35.598Z,100268.00
2022-12-22T05:05:03.630Z,100262.66
2022-12-22T05:07:31.515Z,100265.25
2022-12-22T05:09:59.433Z,100258.97
2022-12-22T05:12:46.159Z,100254.41
2022-12-22T05:15:14.177Z,100256.03
2022-12-22T05:17:42.049Z,100253.38
2022-12-22T05:20:10.839Z,100249.03
2022-12-22T05:22:38.700Z,100256.81
2022-12-22T05:25:08.198Z,100247.78
2022-12-22T05:27:37.545Z,100246.94
2022-12-22T05:30:06.454Z,100244.19
2022-12-22T05:32:34.346Z,100243.31
2022-12-22T05:35:03.168Z,100244.97
2022-12-22T05:37:31.251Z,100240.41
2022-12-22T05:39:59.145Z,100229.56
2022-12-22T05:42:36.885Z,100232.13
2022-12-22T05:45:09.076Z,100230.13
2022-12-22T05:47:37.063Z,100229.97
2022-12-22T05:50:05.573Z,100230.56
2022-12-22T05:52:33.454Z,100221.44
2022-12-22T05:55:01.351Z,100215.66
2022-12-22T05:57:29.254Z,100217.88
2022-12-22T05:59:57.183Z,100220.00
2022-12-22T06:02:26.611Z,100222.22
2022-12-22T06:04:54.626Z,100228.88
2022-12-22T06:07:22.534Z,100219.75
2022-12-22T06:09:50.458Z,100214.91
2022-12-22T06:12:18.346Z,100213.88
2022-12-22T06:14:46.367Z,100218.06
2022-12-22T06:17:14.248Z,100215.19
2022-12-22T06:19:43.536Z,100215.94
2022-12-22T06:22:11.423Z,100210.53
2022-12-22T06:24:39.318Z,100208.72
2022-12-22T06:27:07.200Z,100206.81
2022-12-22T06:29:35.104Z,100210.31
2022-12-22T06:32:03.052Z,100212.91
2022-12-22T06:34:30.950Z,100202.13
2022-12-22T06:37:00.320Z,100213.56
2022-12-22T06:39:28.249Z,100209.00
2022-12-22T06:42:18.781Z,100205.38
2022-12-22T06:44:47.351Z,100211.38
2022-12-22T06:47:15.222Z,100208.72
2022-12-22T06:49:43.413Z,100211.31
2022-12-22T06:52:12.713Z,100213.88
2022-12-22T06:54:40.679Z,100216.44
2022-12-22T06:57:08.553Z,100198.72
2022-12-22T06:59:36.493Z,100189.84
2022-12-22T07:02:04.431Z,100193.28
2022-12-22T07:04:32.463Z,100192.31
2022-12-22T07:07:00.375Z,100180.69
2022-12-22T07:09:29.884Z,100182.41
2022-12-22T07:11:57.840Z,100188.50
2022-12-22T07:14:25.737Z,100182.22
2022-12-22T07:16:53.687Z,100183.94
2022-12-22T07:19:21.671Z,100190.97
2022-12-22T07:21:51.010Z,100190.03
2022-12-22T07:24:23.883Z,100185.63
2022-12-22T07:26:53.215Z,100190.91
2022-12-22T07:29:21.098Z,100197.06
2022-12-22T07:31:49.108Z,100188.13
2022-12-22T07:34:17.190Z,100199.44
2022-12-22T07:36:45.284Z,100205.53
2022-12-22T07:39:13.284Z,100202.88
2022-12-22T07:41:58.633Z,100213.38
2022-12-22T07:44:28.010Z,100220.50
2022-12-22T07:46:55.963Z,100209.75
2022-12-22T07:49:41.183Z,100209.66
2022-12-22T07:52:09.119Z,100205.25
2022-12-22T07:54:41.816Z,100208.88
2022-12-22T07:57:10.309Z,100207.84
2022-12-22T07:59:39.799Z,100206.03
2022-12-22T08:02:08.056Z,100204.97
2022-12-22T08:04:36.035Z,100223.66
2022-12-22T08:07:03.996Z,100221.72
2022-12-22T08:09:32.128Z,100212.97
2022-12-22T08:12:00.054Z,100216.41
2022-12-22T08:14:27.999Z,100216.22
2022-12-22T08:16:57.401Z,100202.22
2022-12-22T08:19:25.860Z,100216.22
2022-12-22T08:21:53.764Z,100208.97
2022-12-22T08:24:21.821Z,100217.81
2022-12-22T08:26:50.621Z,100211.47
2022-12-22T08:29:19.551Z,100217.56
2022-12-22T08:31:47.604Z,100215.53
2022-12-22T08:34:17.091Z,100221.00
2022-12-22T08:36:46.251Z,100214.72
2022-12-22T08:39:14.257Z,100204.69
2022-12-22T08:41:53.936Z,100208.41
2022-12-22T08:44:23.158Z,100209.38
2022-12-22T08:46:51.224Z,100201.38
2022-12-22T08:49:20.673Z,100215.53
2022-12-22T08:51:48.758Z,100213.63
2022-12-22T08:54:17.116Z,100219.84
2022-12-22T08:56:45.829Z,100225.00
2022-12-22T08:59:13.939Z,100218.69
2022-12-22T09:01:44.651Z,100226.69
2022-12-22T09:04:13.610Z,100237.47
2022-12-22T09:06:42.900Z,100242.81
2022-12-22T09:09:12.763Z,100226.91
2022-12-22T09:11:40.832Z,100233.94
2022-12-22T09:14:09.077Z,100227.78
2022-12-22T09:16:37.169Z,100217.91
2022-12-22T09:19:05.180Z,100224.81
2022-12-22T09:21:33.086Z,100222.88
2022-12-22T09:24:03.371Z,100230.16
2022-12-22T09:26:31.345Z,100235.56
2022-12-22T09:28:59.287Z,100229.28
2022-12-22T09:31:27.370Z,100227.56
2022-12-22T09:33:55.344Z,100224.81
2022-12-22T09:36:23.976Z,100211.53
2022-12-22T09:38:51.869Z,100214.94
2022-12-22T09:41:22.286Z,100219.47
2022-12-22T09:43:50.210Z,100221.06
2022-12-22T09:46:21.853Z,100202.47
2022-12-22T09:48:49.869Z,100211.34
2022-12-22T09:51:24.543Z,100214.94
2022-12-22T09:53:55.768Z,100216.88
2022-12-22T09:56:25.030Z,100214.31
2022-12-22T09:58:52.899Z,100222.22
2022-12-22T10:01:34.284Z,100223.06
2022-12-22T10:04:04.133Z,100231.84
2022-12-22T10:06:35.689Z,100222.97
2022-12-22T10:09:05.769Z,100217.31
2022-12-22T10:11:39.409Z,100215.53
2022-12-22T10:14:07.437Z,100215.34
2022-12-22T10:16:35.370Z,100214.38
2022-12-22T10:19:10.618Z,100224.19
2022-12-22T10:21:46.169Z,100224.00
2022-12-22T10:24:19.108Z,100192.66
2022-12-22T10:26:49.302Z,100205.19
2022-12-22T10:29:17.192Z,100214.81
2022-12-22T10:31:59.579Z,100222.63
2022-12-22T10:34:27.527Z,100214.53
2022-12-22T10:36:57.757Z,100223.28
2022-12-22T10:39:26.286Z,100215.84
2022-12-22T10:41:57.405Z,100219.94
2022-12-22T10:44:26.588Z,100235.66
2022-12-22T10:46:54.961Z,100235.44
2022-12-22T10:49:24.025Z,100223.88
2022-12-22T10:51:54.017Z,100203.69
2022-12-22T10:54:31.902Z,100196.41
2022-12-22T10:57:28.845Z,100191.63
2022-12-22T10:59:57.904Z,100192.25
2022-12-22T11:02:30.183Z,100193.13
2022-12-22T11:05:03.082Z,100197.97
2022-12-22T11:07:32.449Z,100203.31
2022-12-22T11:10:00.523Z,100206.09
2022-12-22T11:12:34.891Z,100206.94
2022-12-22T11:15:04.636Z,100216.00
2022-12-22T11:17:36.418Z,100211.09
2022-12-22T11:20:17.882Z,100214.81
2022-12-22T11:22:49.224Z,100207.84
2022-12-22T11:25:23.883Z,100219.97
2022-12-22T11:28:04.401Z,100207.53
2022-12-22T11:30:35.897Z,100209.72
2022-12-22T11:33:24.482Z,100203.22
2022-12-22T11:35:58.789Z,100201.41
2022-12-22T11:38:33.985Z,100197.84
2022-12-22T11:41:05.502Z,100205.69
2022-12-22T11:43:39.761Z,100194.00
2022-12-22T11:46:16.306Z,100192.00
2022-12-22T11:49:01.104Z,100198.09
2022-12-22T11:51:37.282Z,100202.41
2022-12-22T11:54:14.777Z,100201.94
2022-12-22T11:56:43.857Z,100204.31
2022-12-22T11:59:24.494Z,100204.31
2022-12-22T12:02:17.939Z,100209.56
2022-12-22T12:05:00.686Z,100212.88
2022-12-22T12:07:29.359Z,100212.78
2022-12-22T12:10:04.358Z,100218.13
2022-12-22T12:12:37.082Z,100215.53
2022-12-22T12:15:12.480Z,100217.47
2022-12-22T12:17:50.135Z,100213.84
2022-12-22T12:20:29.240Z,100213.72
2022-12-22T12:23:04.225Z,100220.88
2022-12-22T12:25:33.638Z,100218.13
2022-12-22T12:28:17.330Z,100204.63
2022-12-22T12:30:52.541Z,100213.63
2022-12-22T12:33:22.103Z,100216.84
2022-12-22T12:35:57.187Z,100210.53
2022-12-22T12:39:06.299Z,100213.53
2022-12-22T12:41:21.983Z,100205.69
2022-12-22T12:43:49.998Z,100205.81
2022-12-22T12:46:46.607Z,100210.19
2022-12-22T12:50:03.315Z,100214.03
2022-12-22T12:53:16.953Z,100217.75
2022-12-22T12:56:09.664Z,100213.47
2022-12-22T12:58:58.315Z,100209.97
2022-12-22T13:02:01.094Z,100201.19
2022-12-22T13:05:12.161Z,100208.56
2022-12-22T13:08:12.162Z,100202.66
2022-12-22T13:10:42.121Z,100196.09
2022-12-22T13:13:12.827Z,100196.41
2022-12-22T13:15:41.567Z,100197.38
2022-12-22T13:18:36.902Z,100202.19
2022-12-22T13:26:52.050Z,100195.50
2022-12-22T13:29:24.914Z,100199.06
2022-12-22T13:31:54.133Z,100204.72
2022-12-22T13:35:04.337Z,100187.44
2022-12-22T13:37:28.197Z,100194.25
2022-12-22T13:40:17.413Z,100196.94
2022-12-22T13:42:47.309Z,100194.25
2022-12-22T13:45:34.391Z,100193.09
2022-12-22T13:48:02.758Z,100191.16
2022-12-22T13:50:34.038Z,100194.81
2022-12-22T13:53:02.008Z,100200.91
2022-12-22T13:55:31.399Z,100196.50
2022-12-22T13:58:02.183Z,100200.66
2022-12-22T14:00:30.301Z,100200.09
2022-12-22T14:02:58.320Z,100200.34
2022-12-22T14:05:31.901Z,100203.22
2022-12-22T14:08:01.429Z,100195.41
2022-12-22T14:10:34.535Z,100187.78
2022-12-22T14:13:04.100Z,100193.88
2022-12-22T14:15:32.225Z,100199.22
2022-12-22T14:18:00.130Z,100177.00
2022-12-22T14:20:28.991Z,100175.72
2022-12-22T14:23:00.077Z,100180.47
2022-12-22T14:25:30.254Z,100182.56
2022-12-22T14:27:58.291Z,100184.81
2022-12-22T14:30:30.993Z,100198.41
2022-12-22T14:33:16.674Z,100204.28
2022-12-22T14:35:44.698Z,100214.59
2022-12-22T14:38:22.295Z,100216.72
2022-12-22T14:40:56.528Z,100223.16
2022-12-22T14:43:27.973Z,100235.00
2022-12-22T14:46:03.042Z,100239.81
2022-12-22T14:48:32.568Z,100238.50
2022-12-22T14:51:00.526Z,100233.78
2022-12-22T14:53:33.851Z,100229.69
2022-12-22T14:56:01.743Z,100233.34
2022-12-22T14:58:30.919Z,100238.88
2022-12-22T15:01:14.217Z,100238.22
2022-12-22T15:03:42.269Z,100242.81
2022-12-22T15:06:34.315Z,100243.75
2022-12-22T15:10:12.612Z,100236.78
2022-12-22T15:12:15.568Z,100248.66
2022-12-22T15:14:43.565Z,100264.69
2022-12-22T15:17:17.932Z,100264.03
2022-12-22T15:19:45.823Z,100290.00
2022-12-22T15:22:14.084Z,100291.06
2022-12-22T15:24:43.405Z,100292.22
2022-12-22T15:27:11.337Z,100300.31
2022-12-22T15:29:39.233Z,100304.03
2022-12-22T15:32:11.072Z,100311.38
2022-12-22T15:34:38.967Z,100309.66
2022-12-22T15:37:06.849Z,100323.50
2022-12-22T15:39:34.760Z,100328.38
2022-12-22T15:42:04.194Z,100334.78
2022-12-22T15:44:38.288Z,100318.16
2022-12-22T15:47:06.901Z,100350.22
2022-12-22T15:49:34.882Z,100343.31
2022-12-22T15:52:03.734Z,100343.44
2022-12-22T15:54:33.252Z,100352.28
2022-12-22T15:57:01.366Z,100355.03
2022-12-22T15:59:31.033Z,100356.94
2022-12-22T16:02:01.775Z,100351.78
2022-12-22T16:04:30.510Z,100353.69
2022-12-22T16:06:59.592Z,100337.31
2022-12-22T16:09:28.927Z,100353.63
2022-12-22T16:11:56.878Z,100338.53
2022-12-22T16:14:24.714Z,100345.03
2022-12-22T16:16:54.023Z,100354.66
2022-12-22T16:19:21.985Z,100364.31
2022-12-22T16:21:50.671Z,100352.66
2022-12-22T16:24:23.599Z,100351.25
2022-12-22T16:26:51.523Z,100351.78
2022-12-22T16:29:19.452Z,100352.06
2022-12-22T16:31:49.545Z,100343.00
2022-12-22T16:34:18.991Z,100370.06
2022-12-22T16:36:46.874Z,100374.69
2022-12-22T16:39:14.746Z,100381.94
2022-12-22T16:41:42.664Z,100377.38
2022-12-22T16:44:10.948Z,100382.53
2022-12-22T16:46:39.195Z,100395.59
2022-12-22T16:49:08.659Z,100405.03
2022-12-22T16:51:47.827Z,100408.41
2022-12-22T16:54:15.895Z,100415.25
2022-12-22T16:56:46.690Z,100414.31
2022-12-22T16:59:14.825Z,100417.81
2022-12-22T17:01:44.096Z,100419.47
2022-12-22T17:04:14.126Z,100425.50
2022-12-22T17:06:43.552Z,100420.06
2022-12-22T17:09:14.134Z,100421.69
2022-12-22T17:11:42.301Z,100425.22
2022-12-22T17:14:17.009Z,100435.78
2022-12-22T17:16:44.924Z,100420.72
2022-12-22T17:19:12.935Z,100430.56
2022-12-22T17:21:40.849Z,100431.41
2022-12-22T17:24:11.710Z,100437.69
2022-12-22T17:26:39.636Z,100452.25
2022-12-22T17:29:07.601Z,100456.56
2022-12-22T17:31:35.613Z,100457.53
2022-12-22T17:34:11.766Z,100461.03
2022-12-22T17:36:40.224Z,100469.91
2022-12-22T17:39:11.360Z,100469.03
2022-12-22T17:41:39.336Z,100468.00
2022-12-22T17:44:07.640Z,100465.44
2022-12-22T17:46:36.180Z,100468.09
2022-12-22T17:49:04.200Z,100479.66
2022-12-22T17:51:32.202Z,100472.41
2022-12-22T17:54:00.221Z,100474.22
2022-12-22T17:56:30.589Z,100482.97
2022-12-22T17:58:58.480Z,100467.94
2022-12-22T18:01:28.582Z,100486.69
2022-12-22T18:03:56.793Z,100479.53
2022-12-22T18:06:26.601Z,100484.88
2022-12-22T18:08:55.656Z,100486.69
2022-12-22T18:11:23.843Z,100492.78
2022-12-22T18:13:53.558Z,100498.34
2022-12-22T18:16:23.236Z,100492.22
2022-12-22T18:18:51.609Z,100496.59
2022-12-22T18:21:20.638Z,100491.47
2022-12-22T18:23:50.706Z,100491.25
2022-12-22T18:26:21.771Z,100505.38
2022-12-22T18:28:50.075Z,100502.91
2022-12-22T18:31:19.581Z,100506.50
2022-12-22T18:33:47.564Z,100496.97
2022-12-22T18:36:22.305Z,100500.56
2022-12-22T18:38:50.199Z,100501.72
2022-12-22T18:41:21.703Z,100500.94
2022-12-22T18:43:49.907Z,100492.25
2022-12-22T18:46:19.422Z,100482.44
2022-12-22T18:48:47.508Z,100487.88
2022-12-22T18:51:19.057Z,100492.44
2022-12-22T18:53:46.998Z,100495.25
2022-12-22T18:56:15.240Z,100497.09
2022-12-22T18:58:43.279Z,100507.84
2022-12-22T19:01:17.869Z,100516.81
2022-12-22T19:03:47.664Z,100524.97
2022-12-22T19:06:16.362Z,100531.19
2022-12-22T19:08:46.176Z,100530.41
2022-12-22T19:11:14.448Z,100525.94
2022-12-22T19:13:44.773Z,100529.72
2022-12-22T19:16:13.281Z,100521.69
2022-12-22T19:18:41.210Z,100536.00
2022-12-22T19:21:13.275Z,100527.22
2022-12-22T19:23:41.238Z,100520.53
2022-12-22T19:26:16.745Z,100528.88
2022-12-22T19:28:45.031Z,100528.16
2022-12-22T19:31:17.777Z,100546.69
2022-12-22T19:33:45.808Z,100543.91
2022-12-22T19:36:17.154Z,100539.34
2022-12-22T19:38:50.287Z,100529.44
2022-12-22T19:41:27.446Z,100531.94
2022-12-22T19:43:55.388Z,100536.16
2022-12-22T19:46:30.574Z,100530.91
2022-12-22T19:48:58.609Z,100549.50
2022-12-22T19:51:27.872Z,100562.47
2022-12-22T19:53:55.784Z,100554.31
2022-12-22T19:56:25.230Z,100557.16
2022-12-22T19:58:53.143Z,100535.38
2022-12-22T20:01:21.138Z,100547.06
2022-12-22T20:03:49.128Z,100549.75
2022-12-22T20:06:17.627Z,100549.75
2022-12-22T20:08:47.169Z,100540.81
2022-12-22T20:11:15.568Z,100534.44
2022-12-22T20:13:43.476Z,100543.28
2022-12-22T20:16:13.731Z,100546.16
2022-12-22T20:18:41.679Z,100545.19
2022-12-22T20:21:13.053Z,100539.84
2022-12-22T20:23:41.263Z,100530.19
2022-12-22T20:26:15.162Z,100537.09
2022-12-22T20:28:43.036Z,100542.50
2022-12-22T20:31:13.099Z,100538.31
2022-12-22T20:33:41.073Z,100543.75
2022-12-22T20:36:15.236Z,100541.91
2022-12-22T20:38:43.193Z,100534.69
2022-12-22T20:41:12.483Z,100542.72
2022-12-22T20:43:40.419Z,100557.59
2022-12-22T20:46:13.446Z,100552.16
2022-12-22T20:48:43.754Z,100546.81
2022-12-22T20:51:13.732Z,100551.28
2022-12-22T20:53:41.617Z,100544.91
2022-12-22T20:56:17.860Z,100537.78
2022-12-22T20:58:45.798Z,100537.94
2022-12-22T21:01:13.769Z,100538.13
2022-12-22T21:03:41.818Z,100545.38
2022-12-22T21:06:26.623Z,100551.75
2022-12-22T21:08:55.363Z,100545.69
2022-12-22T21:11:25.017Z,100546.94
2022-12-22T21:13:52.995Z,100563.81
2022-12-22T21:16:23.161Z,100562.22
2022-12-22T21:18:51.227Z,100578.44
2022-12-22T21:21:19.099Z,100568.78
2022-12-22T21:23:47.119Z,100553.66
2022-12-22T21:26:19.977Z,100547.28
2022-12-22T21:28:49.306Z,100552.63
2022-12-22T21:31:17.255Z,100550.63
2022-12-22T21:33:45.396Z,100548.91
2022-12-22T21:36:17.765Z,100543.56
2022-12-22T21:38:47.386Z,100549.66
2022-12-22T21:41:15.327Z,100546.94
2022-12-22T21:43:43.426Z,100544.06
2022-12-22T21:46:13.835Z,100543.81
2022-12-22T21:48:41.865Z,100540.09
2022-12-22T21:51:12.139Z,100540.81
2022-12-22T21:53:40.115Z,100538.03
2022-12-22T21:56:16.514Z,100548.44
2022-12-22T21:58:44.406Z,100551.03
2022-12-22T22:01:14.216Z,100552.06
2022-12-22T22:03:42.471Z,100558.00
2022-12-22T22:06:10.818Z,100541.09
2022-12-22T22:08:38.726Z,100538.44
2022-12-22T22:11:07.273Z,100540.19
2022-12-22T22:13:35.214Z,100533.81
2022-12-22T22:16:03.182Z,100548.03
2022-12-22T22:18:32.539Z,100563.06
2022-12-22T22:21:00.503Z,100568.50
2022-12-22T22:23:28.482Z,100563.34
2022-12-22T22:25:58.283Z,100567.81
2022-12-22T22:28:26.160Z,100572.47
2022-12-22T22:30:54.211Z,100583.31
2022-12-22T22:33:22.172Z,100578.06
2022-12-22T22:35:53.824Z,100573.94
2022-12-22T22:38:22.011Z,100562.47
2022-12-22T22:40:50.202Z,100559.81
2022-12-22T22:43:18.060Z,100553.66
2022-12-22T22:45:46.135Z,100539.34
2022-12-22T22:48:19.001Z,100537.28
2022-12-22T22:50:46.906Z,100536.31
2022-12-22T22:53:16.397Z,100545.13
2022-12-22T22:55:44.280Z,100536.03
2022-12-22T22:58:12.383Z,100539.50
2022-12-22T23:00:40.301Z,100529.09
2022-12-22T23:03:08.367Z,100532.44
2022-12-22T23:05:36.474Z,100528.22
2022-12-22T23:08:04.498Z,100545.78
2022-12-22T23:10:41.164Z,100541.22
2022-12-22T23:13:09.845Z,100551.78
2022-12-22T23:15:37.737Z,100550.00
2022-12-22T23:18:05.937Z,100554.47
2022-12-22T23:20:33.892Z,100559.78
2022-12-22T23:23:01.814Z,100555.44
2022-12-22T23:25:29.727Z,100562.47
2022-12-22T23:27:59.059Z,100561.63
2022-12-22T23:30:26.931Z,100562.47
2022-12-22T23:32:54.802Z,100565.13
2022-12-22T23:35:22.772Z,100563.34
2022-12-22T23:37:50.642Z,100566.19
2022-12-22T23:40:50.644Z,100575.16
2022-12-22T23:43:08.429Z,100581.41
2022-12-22T23:45:36.347Z,100577.97
2022-12-22T23:48:04.336Z,100586.94
2022-12-22T23:50:32.477Z,100579.88
2022-12-22T23:53:00.367Z,100568.44
2022-12-22T23:55:28.282Z,100556.97
2022-12-22T23:57:56.163Z,100546.41
